sensor_id;sensor_type;location;lat;lon;timestamp;temperature;humidity
4530;DHT22;2277;51.626;7.516;2023-05-10T00:00:39;16.80;99.90
4530;DHT22;2277;51.626;7.516;2023-05-10T00:03:04;16.80;99.90
4530;DHT22;2277;51.626;7.516;2023-05-10T00:05:30;16.70;99.90
4530;DHT22;2277;51.626;7.516;2023-05-10T00:07:56;16.70;99.90
4530;DHT22;2277;51.626;7.516;2023-05-10T00:10:22;16.60;99.90
4530;DHT22;2277;51.626;7.516;2023-05-10T00:12:47;16.60;99.90
4530;DHT22;2277;51.626;7.516;2023-05-10T00:15:13;16.50;99.90
4530;DHT22;2277;51.626;7.516;2023-05-10T00:17:39;16.50;99.90
4530;DHT22;2277;51.626;7.516;2023-05-10T00:20:05;16.60;99.90
4530;DHT22;2277;51.626;7.516;2023-05-10T00:22:31;16.50;99.90
4530;DHT22;2277;51.626;7.516;2023-05-10T00:24:57;16.50;99.90
4530;DHT22;2277;51.626;7.516;2023-05-10T00:27:23;16.50;99.90
4530;DHT22;2277;51.626;7.516;2023-05-10T00:29:48;16.40;99.90
4530;DHT22;2277;51.626;7.516;2023-05-10T00:32:14;16.40;99.90
4530;DHT22;2277;51.626;7.516;2023-05-10T00:34:40;16.30;99.90
4530;DHT22;2277;51.626;7.516;2023-05-10T00:37:06;16.30;99.90
4530;DHT22;2277;51.626;7.516;2023-05-10T00:39:31;16.30;99.90
4530;DHT22;2277;51.626;7.516;2023-05-10T00:41:57;16.30;99.90
4530;DHT22;2277;51.626;7.516;2023-05-10T00:44:22;16.20;99.90
4530;DHT22;2277;51.626;7.516;2023-05-10T00:46:48;16.10;99.90
4530;DHT22;2277;51.626;7.516;2023-05-10T00:49:15;16.10;99.90
4530;DHT22;2277;51.626;7.516;2023-05-10T00:51:41;16.10;99.90
4530;DHT22;2277;51.626;7.516;2023-05-10T00:54:09;15.90;99.90
4530;DHT22;2277;51.626;7.516;2023-05-10T00:56:35;15.90;99.90
4530;DHT22;2277;51.626;7.516;2023-05-10T00:59:01;15.90;99.90
4530;DHT22;2277;51.626;7.516;2023-05-10T01:01:28;15.90;99.90
4530;DHT22;2277;51.626;7.516;2023-05-10T01:03:54;16.00;99.90
4530;DHT22;2277;51.626;7.516;2023-05-10T01:06:20;16.00;99.90
4530;DHT22;2277;51.626;7.516;2023-05-10T01:08:46;16.00;99.90
4530;DHT22;2277;51.626;7.516;2023-05-10T01:11:13;16.00;99.90
4530;DHT22;2277;51.626;7.516;2023-05-10T01:13:41;16.00;99.90
4530;DHT22;2277;51.626;7.516;2023-05-10T01:16:07;16.00;99.90
4530;DHT22;2277;51.626;7.516;2023-05-10T01:18:37;16.10;99.90
4530;DHT22;2277;51.626;7.516;2023-05-10T01:24:09;16.10;99.90
4530;DHT22;2277;51.626;7.516;2023-05-10T01:27:01;16.10;99.90
4530;DHT22;2277;51.626;7.516;2023-05-10T01:35:17;16.00;99.90
4530;DHT22;2277;51.626;7.516;2023-05-10T01:37:52;16.00;99.90
4530;DHT22;2277;51.626;7.516;2023-05-10T01:40:26;16.00;99.90
4530;DHT22;2277;51.626;7.516;2023-05-10T01:43:01;16.00;99.90
4530;DHT22;2277;51.626;7.516;2023-05-10T01:48:06;16.00;99.90
4530;DHT22;2277;51.626;7.516;2023-05-10T01:50:32;16.00;99.90
4530;DHT22;2277;51.626;7.516;2023-05-10T01:53:00;16.10;99.90
4530;DHT22;2277;51.626;7.516;2023-05-10T01:55:30;16.00;99.90
4530;DHT22;2277;51.626;7.516;2023-05-10T01:58:10;16.00;99.90
4530;DHT22;2277;51.626;7.516;2023-05-10T02:00:42;15.90;99.90
4530;DHT22;2277;51.626;7.516;2023-05-10T02:03:09;16.00;99.90
4530;DHT22;2277;51.626;7.516;2023-05-10T02:05:36;15.90;99.90
4530;DHT22;2277;51.626;7.516;2023-05-10T02:08:05;16.00;99.90
4530;DHT22;2277;51.626;7.516;2023-05-10T02:10:33;16.00;99.90
4530;DHT22;2277;51.626;7.516;2023-05-10T02:12:59;15.90;99.90
4530;DHT22;2277;51.626;7.516;2023-05-10T02:15:26;15.90;99.90
4530;DHT22;2277;51.626;7.516;2023-05-10T02:17:54;15.90;99.90
4530;DHT22;2277;51.626;7.516;2023-05-10T02:20:22;15.90;99.90
4530;DHT22;2277;51.626;7.516;2023-05-10T02:22:51;15.90;99.90
4530;DHT22;2277;51.626;7.516;2023-05-10T02:25:19;15.90;99.90
4530;DHT22;2277;51.626;7.516;2023-05-10T02:27:46;15.80;99.90
4530;DHT22;2277;51.626;7.516;2023-05-10T02:30:13;15.80;99.90
4530;DHT22;2277;51.626;7.516;2023-05-10T02:32:39;15.80;99.90
4530;DHT22;2277;51.626;7.516;2023-05-10T02:35:06;15.80;99.90
4530;DHT22;2277;51.626;7.516;2023-05-10T02:37:33;15.80;99.90
4530;DHT22;2277;51.626;7.516;2023-05-10T02:40:00;15.80;99.90
4530;DHT22;2277;51.626;7.516;2023-05-10T02:42:29;15.80;99.90
4530;DHT22;2277;51.626;7.516;2023-05-10T02:45:08;15.80;99.90
4530;DHT22;2277;51.626;7.516;2023-05-10T02:47:36;15.80;99.90
4530;DHT22;2277;51.626;7.516;2023-05-10T02:50:02;15.80;99.90
4530;DHT22;2277;51.626;7.516;2023-05-10T02:52:30;15.80;99.90
4530;DHT22;2277;51.626;7.516;2023-05-10T02:55:02;15.70;99.90
4530;DHT22;2277;51.626;7.516;2023-05-10T02:57:33;15.70;99.90
4530;DHT22;2277;51.626;7.516;2023-05-10T03:00:00;15.70;99.90
4530;DHT22;2277;51.626;7.516;2023-05-10T03:02:26;15.70;99.90
4530;DHT22;2277;51.626;7.516;2023-05-10T03:04:52;15.70;99.90
4530;DHT22;2277;51.626;7.516;2023-05-10T03:07:18;15.70;99.90
4530;DHT22;2277;51.626;7.516;2023-05-10T03:09:47;15.70;99.90
4530;DHT22;2277;51.626;7.516;2023-05-10T03:18:06;15.70;99.90
4530;DHT22;2277;51.626;7.516;2023-05-10T03:20:41;15.70;99.90
4530;DHT22;2277;51.626;7.516;2023-05-10T03:25:42;15.60;99.90
4530;DHT22;2277;51.626;7.516;2023-05-10T03:28:09;15.60;99.90
4530;DHT22;2277;51.626;7.516;2023-05-10T03:30:35;15.60;99.90
4530;DHT22;2277;51.626;7.516;2023-05-10T03:33:05;15.60;99.90
4530;DHT22;2277;51.626;7.516;2023-05-10T03:35:31;15.60;99.90
4530;DHT22;2277;51.626;7.516;2023-05-10T03:37:57;15.60;99.90
4530;DHT22;2277;51.626;7.516;2023-05-10T03:40:23;15.60;99.90
4530;DHT22;2277;51.626;7.516;2023-05-10T03:42:49;15.60;99.90
4530;DHT22;2277;51.626;7.516;2023-05-10T03:45:14;15.50;99.90
4530;DHT22;2277;51.626;7.516;2023-05-10T03:47:40;15.50;99.90
4530;DHT22;2277;51.626;7.516;2023-05-10T03:50:06;15.50;99.90
4530;DHT22;2277;51.626;7.516;2023-05-10T03:52:32;15.50;99.90
4530;DHT22;2277;51.626;7.516;2023-05-10T03:54:58;15.50;99.90
4530;DHT22;2277;51.626;7.516;2023-05-10T03:57:23;15.50;99.90
4530;DHT22;2277;51.626;7.516;2023-05-10T03:59:49;15.50;99.90
4530;DHT22;2277;51.626;7.516;2023-05-10T04:02:15;15.40;99.90
4530;DHT22;2277;51.626;7.516;2023-05-10T04:04:42;15.40;99.90
4530;DHT22;2277;51.626;7.516;2023-05-10T04:07:07;15.40;99.90
4530;DHT22;2277;51.626;7.516;2023-05-10T04:09:34;15.40;99.90
4530;DHT22;2277;51.626;7.516;2023-05-10T04:12:00;15.40;99.90
4530;DHT22;2277;51.626;7.516;2023-05-10T04:14:27;15.40;99.90
4530;DHT22;2277;51.626;7.516;2023-05-10T04:16:53;15.50;99.90
4530;DHT22;2277;51.626;7.516;2023-05-10T04:19:18;15.40;99.90
4530;DHT22;2277;51.626;7.516;2023-05-10T04:21:44;15.50;99.90
4530;DHT22;2277;51.626;7.516;2023-05-10T04:24:10;15.50;99.90
4530;DHT22;2277;51.626;7.516;2023-05-10T04:26:35;15.50;99.90
4530;DHT22;2277;51.626;7.516;2023-05-10T04:29:01;15.50;99.90
4530;DHT22;2277;51.626;7.516;2023-05-10T04:31:26;15.50;99.90
4530;DHT22;2277;51.626;7.516;2023-05-10T04:33:53;15.50;99.90
4530;DHT22;2277;51.626;7.516;2023-05-10T04:36:18;15.50;99.90
4530;DHT22;2277;51.626;7.516;2023-05-10T04:38:44;15.50;99.90
4530;DHT22;2277;51.626;7.516;2023-05-10T04:41:10;15.50;99.90
4530;DHT22;2277;51.626;7.516;2023-05-10T04:43:37;15.50;99.90
4530;DHT22;2277;51.626;7.516;2023-05-10T04:46:03;15.50;99.90
4530;DHT22;2277;51.626;7.516;2023-05-10T04:48:29;15.60;99.90
4530;DHT22;2277;51.626;7.516;2023-05-10T04:50:55;15.60;99.90
4530;DHT22;2277;51.626;7.516;2023-05-10T04:53:20;15.60;99.90
4530;DHT22;2277;51.626;7.516;2023-05-10T04:55:46;15.70;99.90
4530;DHT22;2277;51.626;7.516;2023-05-10T04:58:12;15.70;99.90
4530;DHT22;2277;51.626;7.516;2023-05-10T05:00:38;15.60;99.90
4530;DHT22;2277;51.626;7.516;2023-05-10T05:03:04;15.70;99.90
4530;DHT22;2277;51.626;7.516;2023-05-10T05:05:30;15.60;99.90
4530;DHT22;2277;51.626;7.516;2023-05-10T05:07:56;15.50;99.90
4530;DHT22;2277;51.626;7.516;2023-05-10T05:10:21;15.50;99.90
4530;DHT22;2277;51.626;7.516;2023-05-10T05:12:47;15.40;99.90
4530;DHT22;2277;51.626;7.516;2023-05-10T05:15:12;15.50;99.90
4530;DHT22;2277;51.626;7.516;2023-05-10T05:17:38;15.50;99.90
4530;DHT22;2277;51.626;7.516;2023-05-10T05:20:04;15.40;99.90
4530;DHT22;2277;51.626;7.516;2023-05-10T05:22:30;15.40;99.90
4530;DHT22;2277;51.626;7.516;2023-05-10T05:24:56;15.40;99.90
4530;DHT22;2277;51.626;7.516;2023-05-10T05:27:23;15.50;99.90
4530;DHT22;2277;51.626;7.516;2023-05-10T05:29:53;15.40;99.90
4530;DHT22;2277;51.626;7.516;2023-05-10T05:32:19;15.50;99.90
4530;DHT22;2277;51.626;7.516;2023-05-10T05:34:45;15.40;99.90
4530;DHT22;2277;51.626;7.516;2023-05-10T05:37:15;15.50;99.90
4530;DHT22;2277;51.626;7.516;2023-05-10T05:39:41;15.50;99.90
4530;DHT22;2277;51.626;7.516;2023-05-10T05:42:08;15.60;99.90
4530;DHT22;2277;51.626;7.516;2023-05-10T05:44:34;15.50;99.90
4530;DHT22;2277;51.626;7.516;2023-05-10T05:46:59;15.50;99.90
4530;DHT22;2277;51.626;7.516;2023-05-10T05:49:25;15.50;99.90
4530;DHT22;2277;51.626;7.516;2023-05-10T05:51:50;15.60;99.90
4530;DHT22;2277;51.626;7.516;2023-05-10T05:54:16;15.60;99.90
4530;DHT22;2277;51.626;7.516;2023-05-10T05:56:41;15.60;99.90
4530;DHT22;2277;51.626;7.516;2023-05-10T05:59:07;15.70;99.90
4530;DHT22;2277;51.626;7.516;2023-05-10T06:01:33;15.70;99.90
4530;DHT22;2277;51.626;7.516;2023-05-10T06:03:59;15.70;99.90
4530;DHT22;2277;51.626;7.516;2023-05-10T06:06:24;15.70;99.90
4530;DHT22;2277;51.626;7.516;2023-05-10T06:08:50;15.60;99.90
4530;DHT22;2277;51.626;7.516;2023-05-10T06:11:15;15.70;99.90
4530;DHT22;2277;51.626;7.516;2023-05-10T06:13:41;15.70;99.90
4530;DHT22;2277;51.626;7.516;2023-05-10T06:16:07;15.70;99.90
4530;DHT22;2277;51.626;7.516;2023-05-10T06:18:33;15.70;99.90
4530;DHT22;2277;51.626;7.516;2023-05-10T06:20:59;15.70;99.90
4530;DHT22;2277;51.626;7.516;2023-05-10T06:23:25;15.80;99.90
4530;DHT22;2277;51.626;7.516;2023-05-10T06:25:51;15.80;99.90
4530;DHT22;2277;51.626;7.516;2023-05-10T06:28:16;15.90;99.90
4530;DHT22;2277;51.626;7.516;2023-05-10T06:30:42;15.90;99.90
4530;DHT22;2277;51.626;7.516;2023-05-10T06:33:08;15.90;99.90
4530;DHT22;2277;51.626;7.516;2023-05-10T06:35:34;15.90;99.90
4530;DHT22;2277;51.626;7.516;2023-05-10T06:37:59;15.90;99.90
4530;DHT22;2277;51.626;7.516;2023-05-10T06:40:25;15.90;99.90
4530;DHT22;2277;51.626;7.516;2023-05-10T06:42:50;15.90;99.90
4530;DHT22;2277;51.626;7.516;2023-05-10T06:45:16;16.00;99.90
4530;DHT22;2277;51.626;7.516;2023-05-10T06:47:42;15.90;99.90
4530;DHT22;2277;51.626;7.516;2023-05-10T06:50:08;16.00;99.90
4530;DHT22;2277;51.626;7.516;2023-05-10T06:52:34;16.00;99.90
4530;DHT22;2277;51.626;7.516;2023-05-10T06:55:00;16.00;99.90
4530;DHT22;2277;51.626;7.516;2023-05-10T06:57:26;16.10;99.90
4530;DHT22;2277;51.626;7.516;2023-05-10T06:59:52;16.10;99.90
4530;DHT22;2277;51.626;7.516;2023-05-10T07:02:17;16.20;99.90
4530;DHT22;2277;51.626;7.516;2023-05-10T07:04:43;16.20;99.90
4530;DHT22;2277;51.626;7.516;2023-05-10T07:07:09;16.30;99.90
4530;DHT22;2277;51.626;7.516;2023-05-10T07:09:35;16.30;99.90
4530;DHT22;2277;51.626;7.516;2023-05-10T07:12:00;16.40;99.90
4530;DHT22;2277;51.626;7.516;2023-05-10T07:14:27;16.50;99.90
4530;DHT22;2277;51.626;7.516;2023-05-10T07:16:53;16.50;99.90
4530;DHT22;2277;51.626;7.516;2023-05-10T07:19:18;16.40;99.90
4530;DHT22;2277;51.626;7.516;2023-05-10T07:21:45;16.50;99.90
4530;DHT22;2277;51.626;7.516;2023-05-10T07:24:10;16.50;99.90
4530;DHT22;2277;51.626;7.516;2023-05-10T07:26:36;16.60;99.90
4530;DHT22;2277;51.626;7.516;2023-05-10T07:29:02;16.60;99.90
4530;DHT22;2277;51.626;7.516;2023-05-10T07:31:28;16.60;99.90
4530;DHT22;2277;51.626;7.516;2023-05-10T07:33:53;16.70;99.90
4530;DHT22;2277;51.626;7.516;2023-05-10T07:36:19;16.70;99.90
4530;DHT22;2277;51.626;7.516;2023-05-10T07:38:45;16.80;99.90
4530;DHT22;2277;51.626;7.516;2023-05-10T07:41:13;16.80;99.90
4530;DHT22;2277;51.626;7.516;2023-05-10T07:43:39;16.90;99.90
4530;DHT22;2277;51.626;7.516;2023-05-10T07:46:05;17.10;99.90
4530;DHT22;2277;51.626;7.516;2023-05-10T07:48:30;17.10;99.90
4530;DHT22;2277;51.626;7.516;2023-05-10T07:50:56;17.30;99.90
4530;DHT22;2277;51.626;7.516;2023-05-10T07:53:22;17.40;99.90
4530;DHT22;2277;51.626;7.516;2023-05-10T07:55:51;17.40;99.90
4530;DHT22;2277;51.626;7.516;2023-05-10T07:58:19;17.60;99.90
4530;DHT22;2277;51.626;7.516;2023-05-10T08:00:45;17.70;99.90
4530;DHT22;2277;51.626;7.516;2023-05-10T08:03:10;17.90;99.90
4530;DHT22;2277;51.626;7.516;2023-05-10T08:05:36;18.00;99.90
4530;DHT22;2277;51.626;7.516;2023-05-10T08:08:02;18.00;99.90
4530;DHT22;2277;51.626;7.516;2023-05-10T08:10:27;18.10;99.90
4530;DHT22;2277;51.626;7.516;2023-05-10T08:12:53;18.00;99.90
4530;DHT22;2277;51.626;7.516;2023-05-10T08:15:19;18.10;99.90
4530;DHT22;2277;51.626;7.516;2023-05-10T08:17:44;18.10;99.90
4530;DHT22;2277;51.626;7.516;2023-05-10T08:20:10;18.10;99.90
4530;DHT22;2277;51.626;7.516;2023-05-10T08:22:38;18.10;99.90
4530;DHT22;2277;51.626;7.516;2023-05-10T08:25:03;18.10;99.90
4530;DHT22;2277;51.626;7.516;2023-05-10T08:27:29;18.20;99.90
4530;DHT22;2277;51.626;7.516;2023-05-10T08:29:55;18.20;99.90
4530;DHT22;2277;51.626;7.516;2023-05-10T08:32:20;18.20;99.90
4530;DHT22;2277;51.626;7.516;2023-05-10T08:34:46;18.20;99.90
4530;DHT22;2277;51.626;7.516;2023-05-10T08:37:12;18.30;99.90
4530;DHT22;2277;51.626;7.516;2023-05-10T08:39:38;18.40;99.90
4530;DHT22;2277;51.626;7.516;2023-05-10T08:42:04;18.50;99.90
4530;DHT22;2277;51.626;7.516;2023-05-10T08:44:35;18.60;99.90
4530;DHT22;2277;51.626;7.516;2023-05-10T08:47:05;18.60;99.90
4530;DHT22;2277;51.626;7.516;2023-05-10T08:49:37;18.60;99.90
4530;DHT22;2277;51.626;7.516;2023-05-10T08:52:04;18.60;99.90
4530;DHT22;2277;51.626;7.516;2023-05-10T08:54:32;18.60;99.90
4530;DHT22;2277;51.626;7.516;2023-05-10T08:56:57;18.70;99.90
4530;DHT22;2277;51.626;7.516;2023-05-10T08:59:23;18.70;99.90
4530;DHT22;2277;51.626;7.516;2023-05-10T09:01:50;18.60;99.90
4530;DHT22;2277;51.626;7.516;2023-05-10T09:04:15;18.60;99.90
4530;DHT22;2277;51.626;7.516;2023-05-10T09:06:41;18.60;99.90
4530;DHT22;2277;51.626;7.516;2023-05-10T09:09:07;18.60;99.90
4530;DHT22;2277;51.626;7.516;2023-05-10T09:11:33;18.60;99.90
4530;DHT22;2277;51.626;7.516;2023-05-10T09:13:59;18.70;99.90
4530;DHT22;2277;51.626;7.516;2023-05-10T09:16:24;18.80;99.90
4530;DHT22;2277;51.626;7.516;2023-05-10T09:18:50;19.00;99.90
4530;DHT22;2277;51.626;7.516;2023-05-10T09:21:16;19.30;99.90
4530;DHT22;2277;51.626;7.516;2023-05-10T09:23:45;19.30;99.90
4530;DHT22;2277;51.626;7.516;2023-05-10T09:26:12;19.20;99.90
4530;DHT22;2277;51.626;7.516;2023-05-10T09:28:55;19.20;99.90
4530;DHT22;2277;51.626;7.516;2023-05-10T09:31:21;19.30;99.90
4530;DHT22;2277;51.626;7.516;2023-05-10T09:33:48;19.40;99.90
4530;DHT22;2277;51.626;7.516;2023-05-10T09:36:14;19.40;99.90
4530;DHT22;2277;51.626;7.516;2023-05-10T09:38:50;19.40;99.90
4530;DHT22;2277;51.626;7.516;2023-05-10T09:41:23;19.40;99.90
4530;DHT22;2277;51.626;7.516;2023-05-10T09:43:49;19.30;99.90
4530;DHT22;2277;51.626;7.516;2023-05-10T09:46:16;19.30;99.90
4530;DHT22;2277;51.626;7.516;2023-05-10T09:48:46;19.20;99.90
4530;DHT22;2277;51.626;7.516;2023-05-10T09:51:22;19.10;99.90
4530;DHT22;2277;51.626;7.516;2023-05-10T09:53:48;19.10;99.90
4530;DHT22;2277;51.626;7.516;2023-05-10T09:56:34;19.00;99.90
4530;DHT22;2277;51.626;7.516;2023-05-10T09:59:04;19.00;99.90
4530;DHT22;2277;51.626;7.516;2023-05-10T10:01:30;18.80;99.90
4530;DHT22;2277;51.626;7.516;2023-05-10T10:03:56;18.90;99.90
4530;DHT22;2277;51.626;7.516;2023-05-10T10:06:24;18.80;99.90
4530;DHT22;2277;51.626;7.516;2023-05-10T10:08:51;18.90;99.90
4530;DHT22;2277;51.626;7.516;2023-05-10T10:11:18;18.90;99.90
4530;DHT22;2277;51.626;7.516;2023-05-10T10:13:43;19.00;99.90
4530;DHT22;2277;51.626;7.516;2023-05-10T10:16:09;19.20;99.90
4530;DHT22;2277;51.626;7.516;2023-05-10T10:18:36;19.50;99.90
4530;DHT22;2277;51.626;7.516;2023-05-10T10:21:06;19.70;99.90
4530;DHT22;2277;51.626;7.516;2023-05-10T10:23:32;19.90;99.90
4530;DHT22;2277;51.626;7.516;2023-05-10T10:25:58;20.00;99.90
4530;DHT22;2277;51.626;7.516;2023-05-10T10:31:02;20.20;99.90
4530;DHT22;2277;51.626;7.516;2023-05-10T10:34:08;20.30;99.90
4530;DHT22;2277;51.626;7.516;2023-05-10T10:36:44;20.30;99.90
4530;DHT22;2277;51.626;7.516;2023-05-10T10:39:11;20.40;99.90
4530;DHT22;2277;51.626;7.516;2023-05-10T10:41:53;20.50;99.90
4530;DHT22;2277;51.626;7.516;2023-05-10T10:50:05;21.00;99.90
4530;DHT22;2277;51.626;7.516;2023-05-10T10:52:31;21.20;99.90
4530;DHT22;2277;51.626;7.516;2023-05-10T10:57:33;21.40;99.90
4530;DHT22;2277;51.626;7.516;2023-05-10T11:07:57;21.70;99.90
4530;DHT22;2277;51.626;7.516;2023-05-10T11:10:24;21.50;99.90
4530;DHT22;2277;51.626;7.516;2023-05-10T11:13:07;21.20;99.90
4530;DHT22;2277;51.626;7.516;2023-05-10T11:15:36;21.00;99.90
4530;DHT22;2277;51.626;7.516;2023-05-10T11:18:28;20.80;99.90
4530;DHT22;2277;51.626;7.516;2023-05-10T11:21:01;20.60;99.90
4530;DHT22;2277;51.626;7.516;2023-05-10T11:23:54;20.50;99.90
4530;DHT22;2277;51.626;7.516;2023-05-10T11:26:22;20.40;99.90
4530;DHT22;2277;51.626;7.516;2023-05-10T11:28:51;20.30;99.90
4530;DHT22;2277;51.626;7.516;2023-05-10T11:31:18;20.20;99.90
4530;DHT22;2277;51.626;7.516;2023-05-10T11:36:21;20.10;99.90
4530;DHT22;2277;51.626;7.516;2023-05-10T11:38:48;20.10;99.90
4530;DHT22;2277;51.626;7.516;2023-05-10T11:41:17;20.10;99.90
4530;DHT22;2277;51.626;7.516;2023-05-10T11:43:46;20.00;99.90
4530;DHT22;2277;51.626;7.516;2023-05-10T11:46:13;20.00;99.90
4530;DHT22;2277;51.626;7.516;2023-05-10T11:48:39;19.90;99.90
4530;DHT22;2277;51.626;7.516;2023-05-10T11:51:06;19.90;99.90
4530;DHT22;2277;51.626;7.516;2023-05-10T11:53:32;19.90;99.90
4530;DHT22;2277;51.626;7.516;2023-05-10T11:56:09;19.90;99.90
4530;DHT22;2277;51.626;7.516;2023-05-10T11:58:38;19.90;99.90
4530;DHT22;2277;51.626;7.516;2023-05-10T12:01:06;19.90;99.90
4530;DHT22;2277;51.626;7.516;2023-05-10T12:03:33;20.00;99.90
4530;DHT22;2277;51.626;7.516;2023-05-10T12:06:00;20.00;99.90
4530;DHT22;2277;51.626;7.516;2023-05-10T12:08:28;20.10;99.90
4530;DHT22;2277;51.626;7.516;2023-05-10T12:11:04;20.10;99.90
4530;DHT22;2277;51.626;7.516;2023-05-10T12:13:31;20.30;99.90
4530;DHT22;2277;51.626;7.516;2023-05-10T12:15:59;20.50;99.90
4530;DHT22;2277;51.626;7.516;2023-05-10T12:18:39;20.50;99.90
4530;DHT22;2277;51.626;7.516;2023-05-10T12:21:05;20.50;99.90
4530;DHT22;2277;51.626;7.516;2023-05-10T12:23:31;20.60;99.90
4530;DHT22;2277;51.626;7.516;2023-05-10T12:26:02;20.70;99.90
4530;DHT22;2277;51.626;7.516;2023-05-10T12:28:30;20.80;99.90
4530;DHT22;2277;51.626;7.516;2023-05-10T12:30:57;21.00;99.90
4530;DHT22;2277;51.626;7.516;2023-05-10T12:33:24;21.20;99.90
4530;DHT22;2277;51.626;7.516;2023-05-10T12:35:51;21.40;99.90
4530;DHT22;2277;51.626;7.516;2023-05-10T12:41:08;21.70;99.90
4530;DHT22;2277;51.626;7.516;2023-05-10T12:43:36;21.90;99.90
4530;DHT22;2277;51.626;7.516;2023-05-10T12:46:13;22.00;99.90
4530;DHT22;2277;51.626;7.516;2023-05-10T12:48:40;22.00;99.90
4530;DHT22;2277;51.626;7.516;2023-05-10T12:51:06;22.00;99.90
4530;DHT22;2277;51.626;7.516;2023-05-10T12:53:37;22.00;99.90
4530;DHT22;2277;51.626;7.516;2023-05-10T12:56:03;22.10;99.90
4530;DHT22;2277;51.626;7.516;2023-05-10T12:58:28;22.00;99.90
4530;DHT22;2277;51.626;7.516;2023-05-10T13:00:54;22.00;99.90
4530;DHT22;2277;51.626;7.516;2023-05-10T13:03:21;21.90;99.90
4530;DHT22;2277;51.626;7.516;2023-05-10T13:05:47;21.80;99.90
4530;DHT22;2277;51.626;7.516;2023-05-10T13:08:13;21.70;99.90
4530;DHT22;2277;51.626;7.516;2023-05-10T13:10:39;21.60;99.90
4530;DHT22;2277;51.626;7.516;2023-05-10T13:13:04;21.60;99.90
4530;DHT22;2277;51.626;7.516;2023-05-10T13:15:30;21.60;99.90
4530;DHT22;2277;51.626;7.516;2023-05-10T13:17:56;21.50;99.90
4530;DHT22;2277;51.626;7.516;2023-05-10T13:20:22;21.40;99.90
4530;DHT22;2277;51.626;7.516;2023-05-10T13:22:47;21.40;99.90
4530;DHT22;2277;51.626;7.516;2023-05-10T13:25:13;21.50;99.90
4530;DHT22;2277;51.626;7.516;2023-05-10T13:27:39;21.50;99.90
4530;DHT22;2277;51.626;7.516;2023-05-10T13:30:06;21.50;99.90
4530;DHT22;2277;51.626;7.516;2023-05-10T13:32:32;21.60;99.90
4530;DHT22;2277;51.626;7.516;2023-05-10T13:34:58;21.70;99.90
4530;DHT22;2277;51.626;7.516;2023-05-10T13:37:24;21.90;99.90
4530;DHT22;2277;51.626;7.516;2023-05-10T13:39:49;22.20;99.90
4530;DHT22;2277;51.626;7.516;2023-05-10T13:42:15;22.40;99.90
4530;DHT22;2277;51.626;7.516;2023-05-10T13:44:41;22.50;99.90
4530;DHT22;2277;51.626;7.516;2023-05-10T13:47:06;22.50;99.90
4530;DHT22;2277;51.626;7.516;2023-05-10T13:49:32;22.50;99.90
4530;DHT22;2277;51.626;7.516;2023-05-10T13:51:59;22.50;99.90
4530;DHT22;2277;51.626;7.516;2023-05-10T13:54:31;22.70;99.90
4530;DHT22;2277;51.626;7.516;2023-05-10T13:56:56;22.40;99.90
4530;DHT22;2277;51.626;7.516;2023-05-10T13:59:22;22.10;99.90
4530;DHT22;2277;51.626;7.516;2023-05-10T14:01:48;21.80;99.90
4530;DHT22;2277;51.626;7.516;2023-05-10T14:04:13;21.90;99.90
4530;DHT22;2277;51.626;7.516;2023-05-10T14:06:39;21.90;99.90
4530;DHT22;2277;51.626;7.516;2023-05-10T14:09:05;21.90;99.90
4530;DHT22;2277;51.626;7.516;2023-05-10T14:11:30;21.90;99.90
4530;DHT22;2277;51.626;7.516;2023-05-10T14:13:56;21.90;99.90
4530;DHT22;2277;51.626;7.516;2023-05-10T14:16:22;21.90;99.90
4530;DHT22;2277;51.626;7.516;2023-05-10T14:18:47;22.00;99.90
4530;DHT22;2277;51.626;7.516;2023-05-10T14:21:13;22.00;99.90
4530;DHT22;2277;51.626;7.516;2023-05-10T14:23:39;22.10;99.90
4530;DHT22;2277;51.626;7.516;2023-05-10T14:26:04;22.20;99.90
4530;DHT22;2277;51.626;7.516;2023-05-10T14:28:30;22.20;99.90
4530;DHT22;2277;51.626;7.516;2023-05-10T14:30:56;22.20;99.90
4530;DHT22;2277;51.626;7.516;2023-05-10T14:33:22;22.20;99.90
4530;DHT22;2277;51.626;7.516;2023-05-10T14:35:47;22.10;99.90
4530;DHT22;2277;51.626;7.516;2023-05-10T14:38:13;22.20;99.90
4530;DHT22;2277;51.626;7.516;2023-05-10T14:40:39;22.30;99.90
4530;DHT22;2277;51.626;7.516;2023-05-10T14:43:05;22.40;99.90
4530;DHT22;2277;51.626;7.516;2023-05-10T14:45:31;22.50;99.90
4530;DHT22;2277;51.626;7.516;2023-05-10T14:47:57;22.50;99.90
4530;DHT22;2277;51.626;7.516;2023-05-10T14:50:22;22.60;99.90
4530;DHT22;2277;51.626;7.516;2023-05-10T14:52:48;22.60;99.90
4530;DHT22;2277;51.626;7.516;2023-05-10T14:55:14;22.70;99.90
4530;DHT22;2277;51.626;7.516;2023-05-10T14:57:40;22.60;99.90
4530;DHT22;2277;51.626;7.516;2023-05-10T15:00:06;22.70;99.90
4530;DHT22;2277;51.626;7.516;2023-05-10T15:02:32;22.70;99.90
4530;DHT22;2277;51.626;7.516;2023-05-10T15:04:58;22.80;99.90
4530;DHT22;2277;51.626;7.516;2023-05-10T15:07:24;22.60;99.90
4530;DHT22;2277;51.626;7.516;2023-05-10T15:09:52;22.60;99.90
4530;DHT22;2277;51.626;7.516;2023-05-10T15:12:19;22.60;99.90
4530;DHT22;2277;51.626;7.516;2023-05-10T15:14:45;22.50;99.90
4530;DHT22;2277;51.626;7.516;2023-05-10T15:17:10;22.50;99.90
4530;DHT22;2277;51.626;7.516;2023-05-10T15:19:36;22.50;99.90
4530;DHT22;2277;51.626;7.516;2023-05-10T15:22:03;22.60;99.90
4530;DHT22;2277;51.626;7.516;2023-05-10T15:24:29;22.70;99.90
4530;DHT22;2277;51.626;7.516;2023-05-10T15:26:55;22.80;99.90
4530;DHT22;2277;51.626;7.516;2023-05-10T15:29:20;22.90;99.90
4530;DHT22;2277;51.626;7.516;2023-05-10T15:31:50;23.00;99.90
4530;DHT22;2277;51.626;7.516;2023-05-10T15:34:16;23.10;99.90
4530;DHT22;2277;51.626;7.516;2023-05-10T15:36:42;23.20;99.90
4530;DHT22;2277;51.626;7.516;2023-05-10T15:39:07;23.30;99.90
4530;DHT22;2277;51.626;7.516;2023-05-10T15:41:34;23.40;99.90
4530;DHT22;2277;51.626;7.516;2023-05-10T15:44:00;23.40;99.90
4530;DHT22;2277;51.626;7.516;2023-05-10T15:46:27;23.40;99.90
4530;DHT22;2277;51.626;7.516;2023-05-10T15:48:53;23.30;99.90
4530;DHT22;2277;51.626;7.516;2023-05-10T15:51:18;23.30;99.90
4530;DHT22;2277;51.626;7.516;2023-05-10T15:53:44;23.30;99.90
4530;DHT22;2277;51.626;7.516;2023-05-10T15:56:10;23.20;99.90
4530;DHT22;2277;51.626;7.516;2023-05-10T15:58:38;23.10;99.90
4530;DHT22;2277;51.626;7.516;2023-05-10T16:01:04;23.00;99.90
4530;DHT22;2277;51.626;7.516;2023-05-10T16:03:33;23.00;99.90
4530;DHT22;2277;51.626;7.516;2023-05-10T16:05:59;22.90;99.90
4530;DHT22;2277;51.626;7.516;2023-05-10T16:08:24;22.80;99.90
4530;DHT22;2277;51.626;7.516;2023-05-10T16:10:50;22.70;99.90
4530;DHT22;2277;51.626;7.516;2023-05-10T16:13:16;22.60;99.90
4530;DHT22;2277;51.626;7.516;2023-05-10T16:15:42;22.60;99.90
4530;DHT22;2277;51.626;7.516;2023-05-10T16:18:07;22.60;99.90
4530;DHT22;2277;51.626;7.516;2023-05-10T16:20:33;22.70;99.90
4530;DHT22;2277;51.626;7.516;2023-05-10T16:23:04;22.70;99.90
4530;DHT22;2277;51.626;7.516;2023-05-10T16:25:30;22.70;99.90
4530;DHT22;2277;51.626;7.516;2023-05-10T16:27:56;22.70;99.90
4530;DHT22;2277;51.626;7.516;2023-05-10T16:30:21;22.70;99.90
4530;DHT22;2277;51.626;7.516;2023-05-10T16:32:49;22.60;99.90
4530;DHT22;2277;51.626;7.516;2023-05-10T16:35:15;22.60;99.90
4530;DHT22;2277;51.626;7.516;2023-05-10T16:37:40;22.60;99.90
4530;DHT22;2277;51.626;7.516;2023-05-10T16:40:07;22.40;99.90
4530;DHT22;2277;51.626;7.516;2023-05-10T16:42:32;22.40;99.90
4530;DHT22;2277;51.626;7.516;2023-05-10T16:44:58;22.40;99.90